Time;durP1;ratioP1;P1;durP2;ratioP2;P2;SDS_P1;SDS_P2;PMS_P1;PMS_P2;Temp;Humidity;BMP_temperature;BMP_pressure;BME280_temperature;BME280_humidity;BME280_pressure;Samples;Min_cycle;Max_cycle;Signal;HPM_P1;HPM_P2
2023/10/27 00:02:18;;;;;;;116.78;51.58;;;;;;;;;;5021412;28;20360;-85
2023/10/27 00:04:44;;;;;;;126.22;52.15;;;;;;;;;;5012151;28;20064;-84
2023/10/27 00:07:10;;;;;;;122.85;52.22;;;;;;;;;;5010862;28;20034;-83
2023/10/27 00:09:37;;;;;;;118.28;52.40;;;;;;;;;;4980737;28;20465;-84
2023/10/27 00:12:04;;;;;;;128.45;52.85;;;;;;;;;;5002779;28;20469;-83
2023/10/27 00:14:30;;;;;;;132.50;54.20;;;;;;;;;;4991220;28;20073;-85
2023/10/27 00:16:58;;;;;;;125.57;52.92;;;;;;;;;;5000961;28;20026;-84
2023/10/27 00:19:24;;;;;;;130.82;51.28;;;;;;;;;;5001863;28;20066;-85
2023/10/27 00:21:50;;;;;;;127.10;51.85;;;;;;;;;;4994047;28;20117;-83
2023/10/27 00:24:16;;;;;;;142.05;54.22;;;;;;;;;;4995926;28;20034;-84
2023/10/27 00:26:42;;;;;;;130.05;52.10;;;;;;;;;;4993907;28;20084;-83
2023/10/27 00:29:10;;;;;;;136.90;52.95;;;;;;;;;;4992805;28;20033;-84
2023/10/27 00:31:36;;;;;;;128.57;51.38;;;;;;;;;;5012705;28;20030;-83
2023/10/27 00:34:02;;;;;;;135.18;53.50;;;;;;;;;;5015326;28;20018;-83
2023/10/27 00:36:28;;;;;;;140.93;51.95;;;;;;;;;;5014153;28;20057;-81
2023/10/27 00:38:54;;;;;;;134.57;52.03;;;;;;;;;;5007732;28;20558;-83
2023/10/27 00:41:23;;;;;;;143.20;52.00;;;;;;;;;;4997161;28;20126;-83
2023/10/27 00:43:49;;;;;;;136.63;50.10;;;;;;;;;;4988869;28;20027;-83
2023/10/27 00:46:15;;;;;;;150.88;53.03;;;;;;;;;;5016062;28;20444;-84
2023/10/27 00:48:42;;;;;;;148.05;52.20;;;;;;;;;;4998596;28;20466;-83
2023/10/27 00:51:09;;;;;;;136.45;51.08;;;;;;;;;;4985972;28;20154;-83
2023/10/27 00:53:36;;;;;;;139.82;52.65;;;;;;;;;;5001353;28;20390;-83
2023/10/27 00:56:04;;;;;;;144.88;50.55;;;;;;;;;;5001734;28;20430;-85
2023/10/27 00:58:30;;;;;;;144.18;52.83;;;;;;;;;;5001502;28;20038;-84
2023/10/27 01:00:57;;;;;;;166.70;54.58;;;;;;;;;;4995572;28;20407;-84
2023/10/27 01:03:23;;;;;;;157.00;53.92;;;;;;;;;;4996014;28;20038;-84
2023/10/27 01:05:49;;;;;;;145.48;49.78;;;;;;;;;;4994154;28;20446;-86
2023/10/27 01:08:16;;;;;;;147.35;52.38;;;;;;;;;;5003242;28;20030;-85
2023/10/27 01:10:43;;;;;;;159.57;53.72;;;;;;;;;;5011888;28;20529;-84
2023/10/27 01:13:09;;;;;;;163.20;53.72;;;;;;;;;;5015792;28;20017;-84
2023/10/27 01:15:35;;;;;;;165.27;57.47;;;;;;;;;;4988051;28;20427;-84
2023/10/27 01:18:01;;;;;;;168.73;55.38;;;;;;;;;;4998593;28;20057;-86
2023/10/27 01:20:27;;;;;;;171.07;55.67;;;;;;;;;;5015155;28;20042;-85
2023/10/27 01:22:54;;;;;;;189.77;57.38;;;;;;;;;;4999006;28;20087;-86
2023/10/27 01:25:21;;;;;;;178.13;56.38;;;;;;;;;;5012400;28;20367;-86
2023/10/27 01:27:47;;;;;;;179.05;54.00;;;;;;;;;;4990816;28;20045;-86
2023/10/27 01:30:13;;;;;;;173.93;55.45;;;;;;;;;;4995934;28;20145;-84
2023/10/27 01:32:40;;;;;;;182.48;54.90;;;;;;;;;;4999228;28;20033;-84
2023/10/27 01:35:07;;;;;;;179.05;56.40;;;;;;;;;;4997832;28;20024;-84
2023/10/27 01:37:33;;;;;;;192.75;56.50;;;;;;;;;;4980281;28;20038;-85
2023/10/27 01:39:59;;;;;;;206.18;58.78;;;;;;;;;;4999296;28;20395;-84
2023/10/27 01:42:25;;;;;;;187.35;57.00;;;;;;;;;;5014653;28;20823;-84
2023/10/27 01:44:53;;;;;;;178.95;55.75;;;;;;;;;;5015297;28;20026;-85
2023/10/27 01:47:19;;;;;;;197.45;58.15;;;;;;;;;;5007311;28;20113;-86
2023/10/27 01:49:46;;;;;;;198.68;56.45;;;;;;;;;;5013830;28;20044;-86
2023/10/27 01:52:12;;;;;;;185.68;57.28;;;;;;;;;;4985327;28;20041;-86
2023/10/27 01:54:38;;;;;;;206.32;58.90;;;;;;;;;;5019455;28;20040;-86
2023/10/27 01:57:04;;;;;;;194.55;57.42;;;;;;;;;;4994916;28;20030;-85
2023/10/27 01:59:31;;;;;;;221.13;57.70;;;;;;;;;;4966001;28;20121;-85
2023/10/27 02:01:58;;;;;;;204.15;57.35;;;;;;;;;;4997415;28;20106;-86
2023/10/27 02:04:25;;;;;;;206.13;57.65;;;;;;;;;;4995569;28;20125;-85
2023/10/27 02:06:51;;;;;;;217.77;58.97;;;;;;;;;;4998774;28;20507;-84
2023/10/27 02:09:17;;;;;;;222.13;59.28;;;;;;;;;;4984414;28;20057;-86
2023/10/27 02:11:43;;;;;;;230.98;59.05;;;;;;;;;;5018877;28;20572;-86
2023/10/27 02:14:10;;;;;;;251.98;59.67;;;;;;;;;;4992326;28;20112;-84
2023/10/27 02:16:36;;;;;;;233.63;58.70;;;;;;;;;;4994166;28;20575;-86
2023/10/27 02:19:03;;;;;;;214.30;57.67;;;;;;;;;;4994278;28;20037;-86
2023/10/27 02:21:31;;;;;;;230.32;58.15;;;;;;;;;;4992199;28;20037;-85
2023/10/27 02:23:57;;;;;;;232.07;59.13;;;;;;;;;;4994060;28;20099;-85
2023/10/27 02:26:23;;;;;;;204.55;54.70;;;;;;;;;;4994606;28;20064;-84
2023/10/27 02:28:49;;;;;;;192.70;54.08;;;;;;;;;;4996386;28;20042;-84
2023/10/27 02:31:15;;;;;;;214.25;56.38;;;;;;;;;;4994832;28;20547;-85
2023/10/27 02:33:43;;;;;;;193.05;53.67;;;;;;;;;;4994398;28;20109;-84
2023/10/27 02:36:11;;;;;;;197.15;52.10;;;;;;;;;;5015503;28;20064;-83
2023/10/27 02:38:39;;;;;;;173.07;50.78;;;;;;;;;;5011220;28;20081;-84
2023/10/27 02:41:09;;;;;;;180.45;50.20;;;;;;;;;;5014825;28;20054;-82
2023/10/27 02:43:35;;;;;;;157.13;46.50;;;;;;;;;;5002761;28;20083;-85
2023/10/27 02:46:04;;;;;;;153.38;44.75;;;;;;;;;;5017149;28;20536;-85
2023/10/27 02:48:30;;;;;;;175.75;47.50;;;;;;;;;;5022446;28;20061;-85
2023/10/27 02:50:56;;;;;;;164.00;47.08;;;;;;;;;;5022135;28;20390;-84
2023/10/27 02:53:23;;;;;;;171.80;49.33;;;;;;;;;;4989183;28;20073;-84
2023/10/27 02:55:50;;;;;;;184.80;46.95;;;;;;;;;;4991580;28;20402;-84
2023/10/27 02:58:16;;;;;;;156.02;44.45;;;;;;;;;;5020920;28;20375;-85
2023/10/27 03:00:43;;;;;;;154.50;42.30;;;;;;;;;;4988546;28;20399;-85
2023/10/27 03:03:12;;;;;;;129.10;39.80;;;;;;;;;;5006167;28;20086;-84
2023/10/27 03:05:38;;;;;;;122.32;39.40;;;;;;;;;;5008415;28;20029;-86
2023/10/27 03:08:04;;;;;;;118.40;38.67;;;;;;;;;;5018262;28;20022;-87
2023/10/27 03:10:31;;;;;;;137.70;38.95;;;;;;;;;;5003470;28;20053;-87
2023/10/27 03:12:58;;;;;;;127.32;39.28;;;;;;;;;;5018239;28;20029;-86
2023/10/27 03:15:24;;;;;;;122.10;39.45;;;;;;;;;;5004519;28;20030;-86
2023/10/27 03:17:50;;;;;;;116.07;37.30;;;;;;;;;;4996154;28;20137;-84
2023/10/27 03:20:16;;;;;;;126.95;38.63;;;;;;;;;;4998281;28;20026;-85
2023/10/27 03:22:42;;;;;;;132.02;38.85;;;;;;;;;;5016436;28;20048;-85
2023/10/27 03:25:09;;;;;;;115.88;36.75;;;;;;;;;;4988940;28;20088;-84
2023/10/27 03:27:35;;;;;;;107.22;35.13;;;;;;;;;;4991952;28;20451;-85
2023/10/27 03:30:01;;;;;;;119.38;37.03;;;;;;;;;;5011458;28;20501;-84
2023/10/27 03:32:28;;;;;;;105.57;35.35;;;;;;;;;;5011556;28;20018;-85
2023/10/27 03:34:54;;;;;;;109.88;35.90;;;;;;;;;;4981658;28;20025;-85
2023/10/27 03:37:22;;;;;;;108.13;34.20;;;;;;;;;;4999077;28;20037;-85
2023/10/27 03:39:48;;;;;;;97.40;33.33;;;;;;;;;;4994715;28;20029;-85
2023/10/27 03:42:14;;;;;;;111.13;34.00;;;;;;;;;;4994783;28;20041;-84
2023/10/27 03:44:40;;;;;;;94.53;32.88;;;;;;;;;;5022191;28;20494;-85
2023/10/27 03:47:09;;;;;;;105.57;33.15;;;;;;;;;;5022592;28;20480;-85
2023/10/27 03:49:35;;;;;;;108.07;33.63;;;;;;;;;;4997586;28;20478;-85
2023/10/27 03:52:02;;;;;;;117.38;35.53;;;;;;;;;;5019212;28;20029;-85
2023/10/27 03:54:28;;;;;;;107.65;35.65;;;;;;;;;;4992983;28;20058;-83
2023/10/27 03:56:55;;;;;;;112.07;35.80;;;;;;;;;;4983458;28;20061;-83
2023/10/27 03:59:21;;;;;;;123.63;35.28;;;;;;;;;;4998361;28;20047;-86
2023/10/27 04:01:47;;;;;;;107.40;34.60;;;;;;;;;;5016224;28;20376;-82
2023/10/27 04:04:14;;;;;;;110.70;34.60;;;;;;;;;;5013834;28;20248;-83
2023/10/27 04:06:40;;;;;;;107.78;33.40;;;;;;;;;;5017489;28;20034;-85
2023/10/27 04:09:06;;;;;;;100.90;32.75;;;;;;;;;;5004589;28;20140;-85
2023/10/27 04:11:32;;;;;;;104.05;33.88;;;;;;;;;;4999638;28;20034;-83
2023/10/27 04:13:58;;;;;;;106.70;33.00;;;;;;;;;;5000304;28;20506;-84
2023/10/27 04:16:24;;;;;;;106.28;31.88;;;;;;;;;;4996811;28;20048;-84
2023/10/27 04:18:50;;;;;;;91.50;32.03;;;;;;;;;;4995560;28;20466;-84
2023/10/27 04:21:16;;;;;;;94.95;31.70;;;;;;;;;;5014831;28;20129;-84
2023/10/27 04:23:43;;;;;;;100.82;32.75;;;;;;;;;;4999563;28;20037;-83
2023/10/27 04:26:11;;;;;;;99.68;31.88;;;;;;;;;;5020349;28;20025;-79
2023/10/27 04:28:37;;;;;;;90.22;30.45;;;;;;;;;;5008441;28;20052;-79
2023/10/27 04:31:04;;;;;;;95.65;31.38;;;;;;;;;;5029277;28;20057;-79
2023/10/27 04:33:30;;;;;;;88.60;30.70;;;;;;;;;;5002453;28;20029;-81
2023/10/27 04:35:56;;;;;;;91.88;30.85;;;;;;;;;;4989787;28;20029;-79
2023/10/27 04:38:22;;;;;;;91.13;31.92;;;;;;;;;;4985590;28;20485;-79
2023/10/27 04:40:52;;;;;;;88.35;32.00;;;;;;;;;;5014074;28;20068;-80
2023/10/27 04:43:18;;;;;;;95.72;31.50;;;;;;;;;;5025180;28;20045;-79
2023/10/27 04:45:46;;;;;;;89.65;31.13;;;;;;;;;;5017202;28;20037;-79
2023/10/27 04:48:13;;;;;;;83.38;29.95;;;;;;;;;;5003703;28;20025;-80
2023/10/27 04:50:39;;;;;;;92.53;30.75;;;;;;;;;;5017377;28;20042;-81
2023/10/27 04:53:05;;;;;;;86.68;30.23;;;;;;;;;;4998250;28;20483;-81
2023/10/27 04:55:31;;;;;;;96.28;31.50;;;;;;;;;;5013027;28;20508;-81
2023/10/27 04:57:58;;;;;;;87.50;30.38;;;;;;;;;;5006910;28;20029;-81
2023/10/27 05:00:24;;;;;;;85.95;29.42;;;;;;;;;;4998725;28;20293;-81
2023/10/27 05:02:53;;;;;;;85.70;31.42;;;;;;;;;;5005530;28;20037;-81
2023/10/27 05:05:20;;;;;;;86.70;30.23;;;;;;;;;;5022785;28;20042;-81
2023/10/27 05:07:47;;;;;;;86.13;29.80;;;;;;;;;;4999770;28;20092;-81
2023/10/27 05:10:13;;;;;;;85.35;30.75;;;;;;;;;;5004097;28;20531;-81
2023/10/27 05:12:39;;;;;;;93.93;31.83;;;;;;;;;;5006032;28;20026;-82
2023/10/27 05:15:05;;;;;;;87.90;29.92;;;;;;;;;;5017941;28;20031;-81
2023/10/27 05:17:35;;;;;;;86.90;30.67;;;;;;;;;;5017968;28;20041;-81
2023/10/27 05:20:02;;;;;;;93.80;29.80;;;;;;;;;;4994365;28;20037;-80
2023/10/27 05:22:29;;;;;;;96.38;31.45;;;;;;;;;;4997453;28;20403;-81
2023/10/27 05:24:55;;;;;;;103.20;31.50;;;;;;;;;;5009470;28;20042;-80
2023/10/27 05:27:21;;;;;;;99.55;30.77;;;;;;;;;;4994511;28;20231;-79
2023/10/27 05:29:47;;;;;;;96.25;29.88;;;;;;;;;;4994669;28;20379;-82
2023/10/27 05:32:13;;;;;;;101.82;30.75;;;;;;;;;;5008970;28;20038;-79
2023/10/27 05:34:39;;;;;;;106.38;29.95;;;;;;;;;;5004738;28;20031;-80
2023/10/27 05:37:05;;;;;;;91.82;29.25;;;;;;;;;;4993687;28;20357;-81
2023/10/27 05:39:31;;;;;;;98.18;30.52;;;;;;;;;;4995759;28;20042;-82
2023/10/27 05:41:58;;;;;;;97.07;30.85;;;;;;;;;;4989602;28;20708;-81
2023/10/27 05:44:24;;;;;;;108.70;29.67;;;;;;;;;;4997612;28;20041;-82
2023/10/27 05:46:50;;;;;;;81.20;28.05;;;;;;;;;;4996353;28;20557;-81
2023/10/27 05:49:16;;;;;;;88.38;27.67;;;;;;;;;;5001092;28;20046;-80
2023/10/27 05:51:42;;;;;;;84.30;27.67;;;;;;;;;;4975217;28;20038;-80
2023/10/27 05:54:08;;;;;;;79.40;26.55;;;;;;;;;;4995177;28;20038;-82
2023/10/27 05:56:34;;;;;;;76.78;27.08;;;;;;;;;;4997955;28;20053;-80
2023/10/27 05:59:00;;;;;;;83.03;26.20;;;;;;;;;;4998680;28;20518;-80
2023/10/27 06:01:26;;;;;;;91.05;27.50;;;;;;;;;;5004533;28;20495;-80
2023/10/27 06:03:57;;;;;;;69.95;25.27;;;;;;;;;;5004062;28;20061;-81
2023/10/27 06:06:23;;;;;;;65.97;23.27;;;;;;;;;;4994465;28;20042;-81
2023/10/27 06:08:50;;;;;;;80.03;24.05;;;;;;;;;;5003949;28;20030;-81
2023/10/27 06:11:16;;;;;;;77.95;23.80;;;;;;;;;;5022205;28;20156;-83
2023/10/27 06:13:42;;;;;;;73.82;25.55;;;;;;;;;;5016323;28;20041;-81
2023/10/27 06:16:08;;;;;;;76.15;23.98;;;;;;;;;;5006337;28;20554;-80
2023/10/27 06:18:35;;;;;;;76.97;24.75;;;;;;;;;;5001313;28;20467;-81
2023/10/27 06:21:01;;;;;;;61.97;21.98;;;;;;;;;;5009593;28;20455;-81
2023/10/27 06:23:27;;;;;;;53.38;21.65;;;;;;;;;;5027491;28;20116;-80
2023/10/27 06:25:53;;;;;;;57.90;21.73;;;;;;;;;;5019876;28;20399;-81
2023/10/27 06:28:19;;;;;;;58.35;21.33;;;;;;;;;;4987163;28;20034;-80
2023/10/27 06:30:45;;;;;;;71.90;24.27;;;;;;;;;;5022393;28;20021;-79
2023/10/27 06:33:11;;;;;;;69.07;23.38;;;;;;;;;;4999204;28;20030;-81
2023/10/27 06:35:38;;;;;;;67.05;22.83;;;;;;;;;;5015473;28;20088;-80
2023/10/27 06:38:04;;;;;;;59.75;22.60;;;;;;;;;;5018443;28;20101;-78
2023/10/27 06:40:31;;;;;;;63.90;23.02;;;;;;;;;;5014738;28;20514;-80
2023/10/27 06:42:57;;;;;;;62.47;23.33;;;;;;;;;;4995589;28;20037;-80
2023/10/27 06:45:24;;;;;;;63.28;22.48;;;;;;;;;;4985885;28;20171;-80
2023/10/27 06:47:50;;;;;;;64.60;22.85;;;;;;;;;;5014963;28;20100;-79
2023/10/27 06:50:16;;;;;;;66.78;21.60;;;;;;;;;;5019164;28;20042;-79
2023/10/27 06:52:42;;;;;;;60.65;22.20;;;;;;;;;;4999061;28;20667;-80
2023/10/27 06:55:09;;;;;;;70.63;23.65;;;;;;;;;;4992438;28;20029;-81
2023/10/27 06:57:37;;;;;;;69.00;23.13;;;;;;;;;;5006820;28;20049;-81
2023/10/27 07:00:04;;;;;;;70.68;23.15;;;;;;;;;;5003281;28;20025;-80
2023/10/27 07:02:30;;;;;;;68.70;22.70;;;;;;;;;;5012565;28;20429;-81
2023/10/27 07:04:56;;;;;;;69.82;21.70;;;;;;;;;;4989936;28;20503;-80
2023/10/27 07:07:22;;;;;;;73.50;21.40;;;;;;;;;;5018390;28;20050;-79
2023/10/27 07:09:49;;;;;;;64.53;21.20;;;;;;;;;;4996161;28;20450;-80
2023/10/27 07:12:16;;;;;;;69.10;22.05;;;;;;;;;;4992742;28;20034;-80
2023/10/27 07:14:42;;;;;;;63.88;22.02;;;;;;;;;;5016054;28;20041;-81
2023/10/27 07:17:08;;;;;;;66.43;22.27;;;;;;;;;;5008106;28;20395;-81
2023/10/27 07:19:34;;;;;;;62.97;21.45;;;;;;;;;;5023005;28;20402;-80
2023/10/27 07:22:01;;;;;;;62.00;19.83;;;;;;;;;;4992725;28;20029;-81
2023/10/27 07:24:29;;;;;;;52.65;19.38;;;;;;;;;;4992696;28;20038;-80
2023/10/27 07:26:56;;;;;;;56.40;19.20;;;;;;;;;;4993526;28;20029;-81
2023/10/27 07:29:22;;;;;;;65.25;22.27;;;;;;;;;;4996300;28;20446;-79
2023/10/27 07:31:48;;;;;;;59.28;19.75;;;;;;;;;;5012992;28;20052;-80
2023/10/27 07:34:14;;;;;;;61.47;20.02;;;;;;;;;;5004819;28;20035;-81
2023/10/27 07:36:41;;;;;;;54.78;19.52;;;;;;;;;;5029852;28;20033;-81
2023/10/27 07:39:07;;;;;;;53.50;19.13;;;;;;;;;;5026820;28;20077;-80
2023/10/27 07:41:37;;;;;;;54.90;19.77;;;;;;;;;;5026989;28;20033;-80
2023/10/27 07:44:05;;;;;;;52.13;18.75;;;;;;;;;;5007955;28;20402;-80
2023/10/27 07:46:31;;;;;;;53.13;18.73;;;;;;;;;;5030126;28;20368;-80
2023/10/27 07:48:58;;;;;;;57.60;19.77;;;;;;;;;;5021104;28;20282;-80
2023/10/27 07:51:25;;;;;;;47.17;17.73;;;;;;;;;;5006856;28;20419;-79
2023/10/27 07:53:51;;;;;;;53.67;18.90;;;;;;;;;;5010530;28;20510;-80
2023/10/27 07:56:18;;;;;;;52.47;19.15;;;;;;;;;;5028951;28;20037;-81
2023/10/27 07:58:45;;;;;;;60.83;19.50;;;;;;;;;;5022514;28;20037;-79
2023/10/27 08:01:12;;;;;;;52.20;20.05;;;;;;;;;;4996429;28;20038;-81
2023/10/27 08:03:38;;;;;;;45.70;17.90;;;;;;;;;;5022255;28;20045;-80
2023/10/27 08:06:11;;;;;;;49.08;18.38;;;;;;;;;;4992369;28;20037;-80
2023/10/27 08:08:37;;;;;;;54.15;20.02;;;;;;;;;;5009569;28;20418;-78
2023/10/27 08:11:04;;;;;;;54.58;19.95;;;;;;;;;;5001978;28;20057;-80
2023/10/27 08:13:31;;;;;;;54.08;19.00;;;;;;;;;;5004801;28;20395;-80
2023/10/27 08:15:57;;;;;;;46.25;18.58;;;;;;;;;;4992306;28;20479;-80
2023/10/27 08:18:23;;;;;;;51.13;19.33;;;;;;;;;;4975229;28;20559;-79
2023/10/27 08:20:50;;;;;;;44.67;17.45;;;;;;;;;;4975845;28;20041;-80
2023/10/27 08:23:16;;;;;;;49.15;18.58;;;;;;;;;;5023748;28;20033;-81
2023/10/27 08:25:42;;;;;;;45.70;18.20;;;;;;;;;;5029782;28;20038;-80
2023/10/27 08:28:09;;;;;;;48.90;19.25;;;;;;;;;;5028105;28;20066;-82
2023/10/27 08:30:35;;;;;;;44.90;18.15;;;;;;;;;;5025650;28;20391;-79
2023/10/27 08:33:01;;;;;;;45.95;18.30;;;;;;;;;;4987454;28;20605;-81
2023/10/27 08:35:27;;;;;;;45.38;17.30;;;;;;;;;;4991866;28;20318;-80
2023/10/27 08:37:54;;;;;;;47.83;17.95;;;;;;;;;;4992095;28;20057;-80
2023/10/27 08:40:20;;;;;;;43.38;17.42;;;;;;;;;;4991583;28;20459;-80
2023/10/27 08:42:47;;;;;;;40.90;16.85;;;;;;;;;;4993829;28;20036;-80
2023/10/27 08:45:14;;;;;;;47.28;18.83;;;;;;;;;;5003536;28;20080;-81
2023/10/27 08:47:40;;;;;;;47.65;18.17;;;;;;;;;;4991640;28;20042;-80
2023/10/27 08:50:06;;;;;;;38.67;17.42;;;;;;;;;;5010013;28;20041;-81
2023/10/27 08:52:33;;;;;;;40.60;17.70;;;;;;;;;;5014805;28;20033;-81
2023/10/27 08:55:07;;;;;;;43.55;17.63;;;;;;;;;;5034974;28;20041;-80
2023/10/27 08:57:33;;;;;;;39.08;17.55;;;;;;;;;;5029352;28;20014;-80
2023/10/27 08:59:59;;;;;;;37.55;18.58;;;;;;;;;;4997871;28;20430;-79
2023/10/27 09:02:29;;;;;;;38.20;16.40;;;;;;;;;;4994841;28;20038;-80
2023/10/27 09:05:09;;;;;;;43.47;18.13;;;;;;;;;;5003901;28;20050;-81
2023/10/27 09:07:35;;;;;;;37.17;17.50;;;;;;;;;;5032340;28;20045;-79
2023/10/27 09:10:02;;;;;;;31.92;16.40;;;;;;;;;;4994739;28;20070;-81
2023/10/27 09:12:30;;;;;;;29.98;15.02;;;;;;;;;;4983870;28;20025;-80
2023/10/27 09:15:07;;;;;;;26.30;14.13;;;;;;;;;;4994165;28;20045;-80
2023/10/27 09:17:48;;;;;;;28.48;13.93;;;;;;;;;;5011370;28;20026;-79
2023/10/27 09:20:14;;;;;;;22.85;12.18;;;;;;;;;;5012563;28;20095;-80
2023/10/27 09:22:49;;;;;;;21.85;11.90;;;;;;;;;;5011979;28;20132;-80
2023/10/27 09:25:17;;;;;;;26.63;13.43;;;;;;;;;;4994364;28;20038;-80
2023/10/27 09:27:46;;;;;;;22.05;12.63;;;;;;;;;;5021984;28;20434;-81
2023/10/27 09:30:13;;;;;;;20.83;11.82;;;;;;;;;;5016701;28;20080;-80
2023/10/27 09:32:40;;;;;;;24.35;12.65;;;;;;;;;;4994211;28;20042;-79
2023/10/27 09:35:10;;;;;;;24.25;12.48;;;;;;;;;;5024561;28;20041;-81
2023/10/27 09:37:41;;;;;;;20.35;12.50;;;;;;;;;;5006200;28;20398;-80
2023/10/27 09:40:09;;;;;;;;;;;;;;;;;;5000606;28;20034;-79
2023/10/27 09:42:37;;;;;;;20.13;10.73;;;;;;;;;;5004834;28;19909;-80
2023/10/27 09:45:07;;;;;;;19.42;11.05;;;;;;;;;;5002516;28;20372;-79
2023/10/27 09:47:34;;;;;;;18.50;9.85;;;;;;;;;;5017964;28;20041;-81
2023/10/27 09:50:06;;;;;;;15.57;9.60;;;;;;;;;;5003732;28;20038;-79
2023/10/27 09:52:33;;;;;;;12.77;7.55;;;;;;;;;;5011535;28;20309;-80
2023/10/27 09:55:01;;;;;;;13.25;8.02;;;;;;;;;;5011310;28;20026;-81
2023/10/27 09:57:28;;;;;;;12.68;7.93;;;;;;;;;;5023348;28;20442;-80
2023/10/27 09:59:55;;;;;;;6.72;4.72;;;;;;;;;;5004599;28;20416;-79
2023/10/27 10:02:23;;;;;;;8.57;6.13;;;;;;;;;;4992821;28;20461;-79
2023/10/27 10:04:52;;;;;;;9.85;6.82;;;;;;;;;;5000625;28;20037;-79
2023/10/27 10:07:31;;;;;;;10.52;6.18;;;;;;;;;;5008963;28;20049;-81
2023/10/27 10:10:16;;;;;;;10.50;7.40;;;;;;;;;;5009876;28;20050;-79
2023/10/27 10:13:02;;;;;;;12.95;8.73;;;;;;;;;;5029652;28;20053;-79
2023/10/27 10:15:31;;;;;;;12.25;7.93;;;;;;;;;;5028645;28;20219;-79
2023/10/27 10:17:57;;;;;;;9.13;6.13;;;;;;;;;;5014454;28;20029;-81
2023/10/27 10:20:44;;;;;;;5.72;4.45;;;;;;;;;;5029791;28;20053;-79
2023/10/27 10:23:11;;;;;;;6.38;4.40;;;;;;;;;;5030752;28;20108;-79
2023/10/27 10:25:50;;;;;;;6.20;4.70;;;;;;;;;;4996852;28;20042;-78
2023/10/27 10:28:16;;;;;;;7.18;5.10;;;;;;;;;;5013541;28;20033;-79
2023/10/27 10:30:43;;;;;;;8.70;5.70;;;;;;;;;;5040873;28;20045;-81
2023/10/27 10:33:09;;;;;;;7.35;5.10;;;;;;;;;;5010899;28;20022;-80
2023/10/27 10:35:38;;;;;;;8.98;5.20;;;;;;;;;;5006935;28;20064;-79
2023/10/27 10:38:27;;;;;;;8.65;4.95;;;;;;;;;;5017475;28;20718;-80
2023/10/27 10:40:53;;;;;;;8.73;4.80;;;;;;;;;;5019630;28;20033;-82
2023/10/27 10:43:39;;;;;;;6.93;4.53;;;;;;;;;;5014002;28;20025;-81
2023/10/27 10:46:06;;;;;;;4.80;3.60;;;;;;;;;;4997572;28;20045;-80
2023/10/27 10:48:37;;;;;;;6.95;3.70;;;;;;;;;;4993348;28;20080;-80
2023/10/27 10:51:29;;;;;;;6.95;3.95;;;;;;;;;;4995554;28;20034;-80
2023/10/27 10:53:55;;;;;;;9.05;4.15;;;;;;;;;;5025688;28;20112;-80
2023/10/27 10:56:22;;;;;;;6.22;4.07;;;;;;;;;;4993876;28;20030;-79
2023/10/27 10:58:48;;;;;;;7.75;5.18;;;;;;;;;;4980122;28;20048;-79
2023/10/27 11:01:16;;;;;;;6.47;4.47;;;;;;;;;;5032798;28;20040;-80
2023/10/27 11:03:46;;;;;;;10.55;5.05;;;;;;;;;;4995590;28;20117;-81
2023/10/27 11:06:12;;;;;;;7.53;5.63;;;;;;;;;;5027540;28;20037;-80
2023/10/27 11:08:39;;;;;;;9.13;5.68;;;;;;;;;;5022299;28;20099;-80
2023/10/27 11:11:06;;;;;;;10.50;7.63;;;;;;;;;;5000598;28;20136;-80
2023/10/27 11:13:33;;;;;;;9.38;5.95;;;;;;;;;;4992107;28;20030;-81
2023/10/27 11:16:03;;;;;;;13.65;9.40;;;;;;;;;;5024030;28;20036;-80
2023/10/27 11:18:29;;;;;;;7.53;5.38;;;;;;;;;;4992593;28;20022;-81
2023/10/27 11:20:55;;;;;;;11.30;5.38;;;;;;;;;;4992836;28;20088;-80
2023/10/27 11:23:26;;;;;;;7.45;5.53;;;;;;;;;;5013323;28;20117;-80
2023/10/27 11:26:00;;;;;;;9.38;6.85;;;;;;;;;;5023670;28;20067;-80
2023/10/27 11:28:27;;;;;;;7.82;6.15;;;;;;;;;;5024810;28;20037;-79
2023/10/27 11:31:12;;;;;;;9.10;6.35;;;;;;;;;;5024477;28;20076;-81
2023/10/27 11:34:04;;;;;;;10.95;5.95;;;;;;;;;;5011944;28;20467;-80
2023/10/27 11:36:34;;;;;;;9.45;6.47;;;;;;;;;;5010139;28;20100;-79
2023/10/27 11:39:14;;;;;;;11.77;6.60;;;;;;;;;;5013965;28;20033;-80
2023/10/27 11:41:44;;;;;;;9.95;6.57;;;;;;;;;;5019877;28;20114;-79
2023/10/27 11:44:10;;;;;;;11.27;7.28;;;;;;;;;;4991078;28;20034;-78
2023/10/27 11:46:36;;;;;;;12.77;7.88;;;;;;;;;;5022840;28;20040;-80
2023/10/27 11:49:03;;;;;;;11.32;8.25;;;;;;;;;;4996061;28;20044;-80
2023/10/27 11:51:32;;;;;;;13.57;8.05;;;;;;;;;;4995908;28;20394;-80
2023/10/27 11:53:58;;;;;;;15.35;8.27;;;;;;;;;;5023106;28;20080;-80
2023/10/27 11:56:24;;;;;;;17.40;11.20;;;;;;;;;;5009437;28;20034;-80
2023/10/27 11:58:50;;;;;;;15.52;9.30;;;;;;;;;;4992633;28;20136;-81
2023/10/27 12:01:17;;;;;;;15.63;8.88;;;;;;;;;;4993610;28;20391;-81
2023/10/27 12:03:43;;;;;;;14.52;9.48;;;;;;;;;;5015082;28;20391;-81
2023/10/27 12:06:10;;;;;;;13.18;8.52;;;;;;;;;;4991409;28;20398;-80
2023/10/27 12:08:36;;;;;;;15.40;9.07;;;;;;;;;;5009157;28;20057;-79
2023/10/27 12:11:03;;;;;;;14.45;9.25;;;;;;;;;;4988364;28;20042;-80
2023/10/27 12:13:29;;;;;;;16.73;8.63;;;;;;;;;;4993392;28;20058;-81
2023/10/27 12:15:55;;;;;;;10.02;6.80;;;;;;;;;;4986798;28;20043;-81
2023/10/27 12:18:22;;;;;;;9.98;6.55;;;;;;;;;;4988681;28;20248;-80
2023/10/27 12:20:50;;;;;;;10.52;6.20;;;;;;;;;;4988762;28;20397;-81
2023/10/27 12:23:18;;;;;;;9.35;6.10;;;;;;;;;;4988244;28;20522;-80
2023/10/27 12:25:44;;;;;;;10.32;7.45;;;;;;;;;;5003996;28;20541;-80
2023/10/27 12:28:10;;;;;;;12.00;7.68;;;;;;;;;;5001401;28;20404;-78
2023/10/27 12:30:37;;;;;;;13.32;8.63;;;;;;;;;;5004716;28;20065;-79
2023/10/27 12:33:03;;;;;;;16.70;10.13;;;;;;;;;;4995966;28;20049;-80
2023/10/27 12:35:30;;;;;;;15.48;9.85;;;;;;;;;;4991565;28;20038;-81
2023/10/27 12:37:57;;;;;;;13.95;9.57;;;;;;;;;;4994085;28;20463;-80
2023/10/27 12:40:24;;;;;;;13.63;8.93;;;;;;;;;;4977493;28;20041;-81
2023/10/27 12:42:51;;;;;;;11.90;8.70;;;;;;;;;;4994185;28;20034;-80
2023/10/27 12:45:17;;;;;;;12.88;10.32;;;;;;;;;;5005340;28;20124;-80
2023/10/27 12:47:44;;;;;;;13.98;10.13;;;;;;;;;;4995593;28;20458;-81
2023/10/27 12:50:11;;;;;;;17.67;11.05;;;;;;;;;;5006619;28;20399;-79
2023/10/27 12:52:37;;;;;;;18.13;12.70;;;;;;;;;;5012719;28;20026;-81
2023/10/27 12:55:07;;;;;;;16.42;11.20;;;;;;;;;;4988080;28;20567;-81
2023/10/27 12:57:33;;;;;;;15.77;11.30;;;;;;;;;;5005366;28;20031;-82
2023/10/27 13:00:00;;;;;;;13.77;10.68;;;;;;;;;;4996011;28;20396;-79
2023/10/27 13:02:26;;;;;;;13.52;9.88;;;;;;;;;;4996493;28;20030;-79
2023/10/27 13:04:54;;;;;;;13.23;9.52;;;;;;;;;;5003873;28;20491;-79
2023/10/27 13:07:20;;;;;;;13.70;9.38;;;;;;;;;;5005237;28;20038;-81
2023/10/27 13:09:46;;;;;;;11.75;8.00;;;;;;;;;;5006623;28;20033;-82
2023/10/27 13:12:12;;;;;;;10.38;7.05;;;;;;;;;;5014618;28;20384;-80
2023/10/27 13:14:40;;;;;;;9.95;7.13;;;;;;;;;;5004898;28;20124;-81
2023/10/27 13:17:06;;;;;;;10.63;8.07;;;;;;;;;;5034498;28;20048;-81
2023/10/27 13:19:36;;;;;;;14.23;8.35;;;;;;;;;;4987384;28;20521;-81
2023/10/27 13:22:02;;;;;;;13.82;9.98;;;;;;;;;;5022473;28;20286;-81
2023/10/27 13:24:28;;;;;;;15.30;10.50;;;;;;;;;;4996977;28;20041;-82
2023/10/27 13:26:57;;;;;;;17.45;10.63;;;;;;;;;;5028504;28;20029;-80
2023/10/27 13:29:23;;;;;;;16.15;11.50;;;;;;;;;;4982336;28;20045;-81
2023/10/27 13:31:50;;;;;;;14.27;10.57;;;;;;;;;;4990804;28;20030;-80
2023/10/27 13:34:16;;;;;;;14.40;10.48;;;;;;;;;;4985207;28;20034;-81
2023/10/27 13:36:43;;;;;;;17.35;10.90;;;;;;;;;;5012432;28;20044;-81
2023/10/27 13:39:09;;;;;;;15.85;10.07;;;;;;;;;;5004890;28;20049;-82
2023/10/27 13:41:36;;;;;;;14.18;10.18;;;;;;;;;;4981755;28;20045;-82
2023/10/27 13:44:04;;;;;;;18.70;11.20;;;;;;;;;;4995059;28;20063;-83
2023/10/27 13:46:32;;;;;;;18.90;12.00;;;;;;;;;;5026882;28;20376;-80
2023/10/27 13:48:58;;;;;;;13.82;9.63;;;;;;;;;;4982445;28;20681;-82
2023/10/27 13:51:24;;;;;;;17.70;9.88;;;;;;;;;;5023701;28;20036;-81
2023/10/27 13:53:51;;;;;;;15.70;10.63;;;;;;;;;;5008571;28;20045;-82
2023/10/27 13:56:18;;;;;;;14.85;10.40;;;;;;;;;;4994203;28;20029;-81
2023/10/27 13:58:44;;;;;;;17.70;11.13;;;;;;;;;;5013497;28;20368;-82
2023/10/27 14:01:10;;;;;;;14.68;10.30;;;;;;;;;;5025537;28;20029;-81
2023/10/27 14:03:37;;;;;;;17.40;10.50;;;;;;;;;;4995181;28;20437;-82
2023/10/27 14:06:03;;;;;;;18.20;11.85;;;;;;;;;;4998417;28;20420;-81
2023/10/27 14:08:31;;;;;;;18.80;12.13;;;;;;;;;;5012802;28;20034;-80
2023/10/27 14:10:57;;;;;;;17.90;10.98;;;;;;;;;;5013489;28;20041;-82
2023/10/27 14:13:24;;;;;;;18.70;11.65;;;;;;;;;;5029883;28;20386;-81
2023/10/27 14:15:50;;;;;;;21.23;11.93;;;;;;;;;;5012175;28;20062;-81
2023/10/27 14:18:16;;;;;;;21.40;12.55;;;;;;;;;;4997009;28;20041;-81
2023/10/27 14:20:42;;;;;;;19.00;12.60;;;;;;;;;;5004826;28;20092;-82